sensor_id;sensor_type;location;lat;lon;timestamp;pressure;altitude;pressure_sealevel;temperature;humidity
34742;BME280;20968;42.696;23.360;2022-07-21T00:01:52;95535.78;;;23.60;45.97
34742;BME280;20968;42.696;23.360;2022-07-21T00:04:18;95538.19;;;23.56;45.83
34742;BME280;20968;42.696;23.360;2022-07-21T00:06:45;95534.78;;;23.50;45.72
34742;BME280;20968;42.696;23.360;2022-07-21T00:09:11;95530.59;;;23.36;45.89
34742;BME280;20968;42.696;23.360;2022-07-21T00:11:38;95538.56;;;23.25;46.11
34742;BME280;20968;42.696;23.360;2022-07-21T00:14:04;95536.13;;;23.21;45.80
34742;BME280;20968;42.696;23.360;2022-07-21T00:16:30;95520.09;;;23.09;45.66
34742;BME280;20968;42.696;23.360;2022-07-21T00:18:56;95522.75;;;23.14;45.97
34742;BME280;20968;42.696;23.360;2022-07-21T00:21:21;95531.94;;;23.15;45.90
34742;BME280;20968;42.696;23.360;2022-07-21T00:23:47;95535.16;;;23.19;46.21
34742;BME280;20968;42.696;23.360;2022-07-21T00:26:12;95531.06;;;23.20;46.42
34742;BME280;20968;42.696;23.360;2022-07-21T00:28:38;95530.00;;;23.30;46.59
34742;BME280;20968;42.696;23.360;2022-07-21T00:31:03;95541.03;;;23.28;46.99
34742;BME280;20968;42.696;23.360;2022-07-21T00:33:29;95538.50;;;23.17;46.73
34742;BME280;20968;42.696;23.360;2022-07-21T00:35:54;95526.31;;;23.15;47.01
34742;BME280;20968;42.696;23.360;2022-07-21T00:38:21;95538.13;;;23.13;46.63
34742;BME280;20968;42.696;23.360;2022-07-21T00:40:46;95539.97;;;23.11;46.80
34742;BME280;20968;42.696;23.360;2022-07-21T00:43:12;95541.00;;;23.00;46.91
34742;BME280;20968;42.696;23.360;2022-07-21T00:45:37;95541.00;;;23.00;46.84
34742;BME280;20968;42.696;23.360;2022-07-21T00:48:03;95540.78;;;22.98;46.84
34742;BME280;20968;42.696;23.360;2022-07-21T00:50:29;95540.06;;;22.77;46.76
34742;BME280;20968;42.696;23.360;2022-07-21T00:52:55;95546.03;;;22.74;47.18
34742;BME280;20968;42.696;23.360;2022-07-21T00:55:21;95535.75;;;22.76;47.57
34742;BME280;20968;42.696;23.360;2022-07-21T00:57:48;95549.84;;;22.84;47.25
34742;BME280;20968;42.696;23.360;2022-07-21T01:00:21;95533.13;;;22.78;47.37
34742;BME280;20968;42.696;23.360;2022-07-21T01:02:46;95525.41;;;22.72;47.19
34742;BME280;20968;42.696;23.360;2022-07-21T01:05:13;95518.28;;;22.71;47.04
34742;BME280;20968;42.696;23.360;2022-07-21T01:07:48;95514.97;;;22.79;47.70
34742;BME280;20968;42.696;23.360;2022-07-21T01:10:16;95528.16;;;22.84;47.60
34742;BME280;20968;42.696;23.360;2022-07-21T01:12:42;95529.44;;;22.83;47.73
34742;BME280;20968;42.696;23.360;2022-07-21T01:15:09;95524.31;;;22.74;47.60
34742;BME280;20968;42.696;23.360;2022-07-21T01:17:35;95527.34;;;22.76;48.24
34742;BME280;20968;42.696;23.360;2022-07-21T01:20:05;95532.75;;;22.74;47.72
34742;BME280;20968;42.696;23.360;2022-07-21T01:22:33;95520.91;;;22.69;47.65
34742;BME280;20968;42.696;23.360;2022-07-21T01:24:59;95512.59;;;22.63;47.90
34742;BME280;20968;42.696;23.360;2022-07-21T01:27:26;95520.47;;;22.65;47.79
34742;BME280;20968;42.696;23.360;2022-07-21T01:29:53;95520.47;;;22.65;48.25
34742;BME280;20968;42.696;23.360;2022-07-21T01:32:18;95520.06;;;22.61;48.20
34742;BME280;20968;42.696;23.360;2022-07-21T01:34:44;95518.16;;;22.56;48.24
34742;BME280;20968;42.696;23.360;2022-07-21T01:37:09;95510.97;;;22.47;48.47
34742;BME280;20968;42.696;23.360;2022-07-21T01:39:35;95505.44;;;22.34;48.36
34742;BME280;20968;42.696;23.360;2022-07-21T01:42:19;95513.84;;;22.34;48.67
34742;BME280;20968;42.696;23.360;2022-07-21T01:44:44;95510.41;;;22.28;49.18
34742;BME280;20968;42.696;23.360;2022-07-21T01:47:09;95498.75;;;22.24;49.30
34742;BME280;20968;42.696;23.360;2022-07-21T01:49:35;95506.59;;;22.26;49.13
34742;BME280;20968;42.696;23.360;2022-07-21T01:52:00;95512.69;;;22.30;49.19
34742;BME280;20968;42.696;23.360;2022-07-21T01:54:26;95510.91;;;22.40;49.35
34742;BME280;20968;42.696;23.360;2022-07-21T01:56:51;95505.63;;;22.36;49.09
34742;BME280;20968;42.696;23.360;2022-07-21T01:59:17;95506.16;;;22.35;48.57
34742;BME280;20968;42.696;23.360;2022-07-21T02:01:42;95509.69;;;22.15;49.03
34742;BME280;20968;42.696;23.360;2022-07-21T02:04:08;95509.69;;;22.15;49.45
34742;BME280;20968;42.696;23.360;2022-07-21T02:06:34;95504.22;;;21.76;50.24
34742;BME280;20968;42.696;23.360;2022-07-21T02:09:00;95513.84;;;21.68;50.43
34742;BME280;20968;42.696;23.360;2022-07-21T02:11:26;95505.28;;;21.73;50.93
34742;BME280;20968;42.696;23.360;2022-07-21T02:13:52;95508.09;;;21.86;50.93
34742;BME280;20968;42.696;23.360;2022-07-21T02:16:18;95506.56;;;21.85;51.11
34742;BME280;20968;42.696;23.360;2022-07-21T02:18:44;95497.22;;;21.70;50.54
34742;BME280;20968;42.696;23.360;2022-07-21T02:21:10;95511.66;;;21.74;50.88
34742;BME280;20968;42.696;23.360;2022-07-21T02:23:36;95514.38;;;21.66;50.59
34742;BME280;20968;42.696;23.360;2022-07-21T02:26:02;95513.47;;;21.84;51.17
34742;BME280;20968;42.696;23.360;2022-07-21T02:28:27;95508.31;;;21.75;51.18
34742;BME280;20968;42.696;23.360;2022-07-21T02:30:53;95509.91;;;21.84;51.00
34742;BME280;20968;42.696;23.360;2022-07-21T02:33:19;95501.41;;;21.76;51.54
34742;BME280;20968;42.696;23.360;2022-07-21T02:35:45;95511.50;;;21.92;51.06
34742;BME280;20968;42.696;23.360;2022-07-21T02:38:11;95501.66;;;21.65;51.11
34742;BME280;20968;42.696;23.360;2022-07-21T02:40:37;95500.91;;;21.65;50.78
34742;BME280;20968;42.696;23.360;2022-07-21T02:43:03;95503.03;;;21.72;50.97
34742;BME280;20968;42.696;23.360;2022-07-21T02:45:28;95503.59;;;21.57;50.76
34742;BME280;20968;42.696;23.360;2022-07-21T02:48:05;95506.28;;;21.50;50.80
34742;BME280;20968;42.696;23.360;2022-07-21T02:50:33;95505.34;;;21.47;50.67
34742;BME280;20968;42.696;23.360;2022-07-21T02:53:01;95509.31;;;21.39;50.57
34742;BME280;20968;42.696;23.360;2022-07-21T02:55:27;95506.19;;;21.42;50.90
34742;BME280;20968;42.696;23.360;2022-07-21T02:58:13;95506.97;;;21.43;50.41
34742;BME280;20968;42.696;23.360;2022-07-21T03:00:42;95507.28;;;21.26;50.38
34742;BME280;20968;42.696;23.360;2022-07-21T03:03:08;95512.47;;;21.22;50.22
34742;BME280;20968;42.696;23.360;2022-07-21T03:05:37;95508.94;;;21.22;50.19
34742;BME280;20968;42.696;23.360;2022-07-21T03:08:03;95507.75;;;21.17;50.00
34742;BME280;20968;42.696;23.360;2022-07-21T03:10:29;95509.88;;;20.99;50.26
34742;BME280;20968;42.696;23.360;2022-07-21T03:12:54;95508.38;;;20.98;50.85
34742;BME280;20968;42.696;23.360;2022-07-21T03:15:20;95507.31;;;21.01;50.77
34742;BME280;20968;42.696;23.360;2022-07-21T03:17:45;95520.25;;;21.16;51.19
34742;BME280;20968;42.696;23.360;2022-07-21T03:20:11;95514.41;;;21.14;51.32
34742;BME280;20968;42.696;23.360;2022-07-21T03:22:37;95512.16;;;21.13;51.27
34742;BME280;20968;42.696;23.360;2022-07-21T03:25:02;95508.38;;;21.11;51.14
34742;BME280;20968;42.696;23.360;2022-07-21T03:27:28;95512.78;;;21.19;51.04
34742;BME280;20968;42.696;23.360;2022-07-21T03:29:53;95510.31;;;21.15;51.00
34742;BME280;20968;42.696;23.360;2022-07-21T03:32:19;95510.53;;;21.17;51.26
34742;BME280;20968;42.696;23.360;2022-07-21T03:34:44;95505.47;;;21.03;50.50
34742;BME280;20968;42.696;23.360;2022-07-21T03:37:11;95508.06;;;21.14;50.68
34742;BME280;20968;42.696;23.360;2022-07-21T03:42:02;95513.34;;;21.17;50.04
34742;BME280;20968;42.696;23.360;2022-07-21T03:44:28;95516.56;;;21.21;50.40
34742;BME280;20968;42.696;23.360;2022-07-21T03:46:53;95518.19;;;21.17;50.68
34742;BME280;20968;42.696;23.360;2022-07-21T03:49:18;95528.31;;;21.20;50.86
34742;BME280;20968;42.696;23.360;2022-07-21T03:51:44;95527.03;;;21.21;50.33
34742;BME280;20968;42.696;23.360;2022-07-21T03:54:09;95512.78;;;21.19;50.68
34742;BME280;20968;42.696;23.360;2022-07-21T03:56:34;95515.16;;;21.28;49.79
34742;BME280;20968;42.696;23.360;2022-07-21T03:59:00;95533.81;;;21.38;49.52
34742;BME280;20968;42.696;23.360;2022-07-21T04:01:25;95527.22;;;21.36;49.15
34742;BME280;20968;42.696;23.360;2022-07-21T04:03:51;95523.22;;;21.44;48.68
34742;BME280;20968;42.696;23.360;2022-07-21T04:06:16;95521.06;;;21.50;49.12
34742;BME280;20968;42.696;23.360;2022-07-21T04:08:41;95543.19;;;21.67;49.40
34742;BME280;20968;42.696;23.360;2022-07-21T04:11:07;95528.84;;;21.57;49.55
34742;BME280;20968;42.696;23.360;2022-07-21T04:13:32;95521.94;;;21.58;49.61
34742;BME280;20968;42.696;23.360;2022-07-21T04:15:57;95540.03;;;21.70;49.06
34742;BME280;20968;42.696;23.360;2022-07-21T04:18:23;95533.25;;;21.66;48.66
34742;BME280;20968;42.696;23.360;2022-07-21T04:20:49;95520.44;;;21.57;48.58
34742;BME280;20968;42.696;23.360;2022-07-21T04:23:14;95538.25;;;21.60;48.99
34742;BME280;20968;42.696;23.360;2022-07-21T04:25:41;95534.34;;;21.63;49.47
34742;BME280;20968;42.696;23.360;2022-07-21T04:28:06;95526.56;;;21.69;49.32
34742;BME280;20968;42.696;23.360;2022-07-21T04:30:32;95541.31;;;21.82;48.98
34742;BME280;20968;42.696;23.360;2022-07-21T04:32:58;95527.84;;;21.81;48.28
34742;BME280;20968;42.696;23.360;2022-07-21T04:35:23;95532.03;;;21.74;49.39
34742;BME280;20968;42.696;23.360;2022-07-21T04:37:49;95538.09;;;21.78;49.25
34742;BME280;20968;42.696;23.360;2022-07-21T04:40:16;95538.94;;;21.86;50.00
34742;BME280;20968;42.696;23.360;2022-07-21T04:42:42;95550.84;;;21.99;49.04
34742;BME280;20968;42.696;23.360;2022-07-21T04:45:09;95541.03;;;22.06;48.73
34742;BME280;20968;42.696;23.360;2022-07-21T04:47:48;95534.03;;;21.99;48.66
34742;BME280;20968;42.696;23.360;2022-07-21T04:50:14;95535.00;;;22.02;48.25
34742;BME280;20968;42.696;23.360;2022-07-21T04:52:39;95541.91;;;22.01;48.59
34742;BME280;20968;42.696;23.360;2022-07-21T04:55:05;95543.16;;;21.80;49.08
34742;BME280;20968;42.696;23.360;2022-07-21T04:57:31;95537.00;;;21.81;49.09
34742;BME280;20968;42.696;23.360;2022-07-21T04:59:56;95542.94;;;21.78;49.16
34742;BME280;20968;42.696;23.360;2022-07-21T05:02:22;95553.31;;;21.70;50.07
34742;BME280;20968;42.696;23.360;2022-07-21T05:04:47;95551.00;;;21.81;49.53
34742;BME280;20968;42.696;23.360;2022-07-21T05:07:12;95540.75;;;21.84;49.29
34742;BME280;20968;42.696;23.360;2022-07-21T05:09:38;95552.63;;;21.90;49.19
34742;BME280;20968;42.696;23.360;2022-07-21T05:12:03;95542.31;;;22.05;48.59
34742;BME280;20968;42.696;23.360;2022-07-21T05:14:29;95545.16;;;22.25;48.78
34742;BME280;20968;42.696;23.360;2022-07-21T05:16:54;95545.22;;;22.46;48.57
34742;BME280;20968;42.696;23.360;2022-07-21T05:19:20;95549.53;;;22.47;48.34
34742;BME280;20968;42.696;23.360;2022-07-21T05:21:45;95544.25;;;22.64;47.97
34742;BME280;20968;42.696;23.360;2022-07-21T05:24:12;95543.06;;;22.79;48.19
34742;BME280;20968;42.696;23.360;2022-07-21T05:26:37;95544.34;;;22.99;47.67
34742;BME280;20968;42.696;23.360;2022-07-21T05:29:03;95550.06;;;23.06;47.25
34742;BME280;20968;42.696;23.360;2022-07-21T05:31:28;95544.97;;;23.05;46.80
34742;BME280;20968;42.696;23.360;2022-07-21T05:33:53;95553.63;;;23.07;47.39
34742;BME280;20968;42.696;23.360;2022-07-21T05:36:19;95551.22;;;23.11;46.68
34742;BME280;20968;42.696;23.360;2022-07-21T05:38:45;95553.88;;;23.16;47.87
34742;BME280;20968;42.696;23.360;2022-07-21T05:41:10;95548.03;;;23.42;47.32
34742;BME280;20968;42.696;23.360;2022-07-21T05:43:35;95544.22;;;23.60;46.98
34742;BME280;20968;42.696;23.360;2022-07-21T05:46:01;95547.66;;;23.73;46.49
34742;BME280;20968;42.696;23.360;2022-07-21T05:48:26;95543.41;;;23.80;45.94
34742;BME280;20968;42.696;23.360;2022-07-21T05:50:52;95548.56;;;24.04;45.63
34742;BME280;20968;42.696;23.360;2022-07-21T05:53:17;95543.72;;;24.12;44.93
34742;BME280;20968;42.696;23.360;2022-07-21T05:55:43;95542.41;;;24.13;44.94
34742;BME280;20968;42.696;23.360;2022-07-21T05:58:08;95535.59;;;24.01;45.33
34742;BME280;20968;42.696;23.360;2022-07-21T06:00:34;95542.00;;;24.09;45.51
34742;BME280;20968;42.696;23.360;2022-07-21T06:02:59;95543.91;;;24.21;45.95
34742;BME280;20968;42.696;23.360;2022-07-21T06:05:24;95546.41;;;24.39;45.50
34742;BME280;20968;42.696;23.360;2022-07-21T06:07:50;95549.28;;;24.54;45.14
34742;BME280;20968;42.696;23.360;2022-07-21T06:10:15;95547.19;;;24.47;46.49
34742;BME280;20968;42.696;23.360;2022-07-21T06:12:42;95553.25;;;24.66;44.99
34742;BME280;20968;42.696;23.360;2022-07-21T06:15:08;95550.44;;;24.74;44.40
34742;BME280;20968;42.696;23.360;2022-07-21T06:17:41;95546.84;;;24.81;45.53
34742;BME280;20968;42.696;23.360;2022-07-21T06:20:07;95538.78;;;24.92;45.35
34742;BME280;20968;42.696;23.360;2022-07-21T06:22:33;95545.53;;;24.97;43.54
34742;BME280;20968;42.696;23.360;2022-07-21T06:24:58;95540.84;;;24.99;44.03
34742;BME280;20968;42.696;23.360;2022-07-21T06:27:24;95534.47;;;25.14;44.04
34742;BME280;20968;42.696;23.360;2022-07-21T06:29:49;95540.47;;;25.25;44.19
34742;BME280;20968;42.696;23.360;2022-07-21T06:32:14;95543.66;;;25.29;43.17
34742;BME280;20968;42.696;23.360;2022-07-21T06:34:40;95528.06;;;24.91;43.96
34742;BME280;20968;42.696;23.360;2022-07-21T06:37:05;95527.53;;;25.15;44.02
34742;BME280;20968;42.696;23.360;2022-07-21T06:39:31;95530.69;;;25.41;43.53
34742;BME280;20968;42.696;23.360;2022-07-21T06:41:56;95529.75;;;25.31;41.99
34742;BME280;20968;42.696;23.360;2022-07-21T06:44:22;95533.53;;;25.26;42.03
34742;BME280;20968;42.696;23.360;2022-07-21T06:46:50;95527.88;;;25.26;42.17
34742;BME280;20968;42.696;23.360;2022-07-21T06:49:15;95539.50;;;25.45;42.32
34742;BME280;20968;42.696;23.360;2022-07-21T06:51:41;95529.72;;;25.53;41.77
34742;BME280;20968;42.696;23.360;2022-07-21T06:54:06;95529.84;;;25.78;42.19
34742;BME280;20968;42.696;23.360;2022-07-21T06:56:31;95520.78;;;25.87;41.67
34742;BME280;20968;42.696;23.360;2022-07-21T06:58:57;95529.38;;;26.03;41.48
34742;BME280;20968;42.696;23.360;2022-07-21T07:01:22;95524.00;;;26.22;41.59
34742;BME280;20968;42.696;23.360;2022-07-21T07:03:47;95516.97;;;26.38;42.71
34742;BME280;20968;42.696;23.360;2022-07-21T07:06:13;95514.16;;;26.63;41.32
34742;BME280;20968;42.696;23.360;2022-07-21T07:08:38;95514.41;;;26.81;40.37
34742;BME280;20968;42.696;23.360;2022-07-21T07:11:05;95515.13;;;26.82;40.47
34742;BME280;20968;42.696;23.360;2022-07-21T07:13:30;95521.50;;;26.66;40.10
34742;BME280;20968;42.696;23.360;2022-07-21T07:15:56;95513.41;;;26.62;40.73
34742;BME280;20968;42.696;23.360;2022-07-21T07:18:22;95505.00;;;26.79;40.88
34742;BME280;20968;42.696;23.360;2022-07-21T07:20:49;95504.28;;;26.95;40.55
34742;BME280;20968;42.696;23.360;2022-07-21T07:23:15;95515.59;;;27.20;40.23
34742;BME280;20968;42.696;23.360;2022-07-21T07:25:41;95505.50;;;27.09;40.06
34742;BME280;20968;42.696;23.360;2022-07-21T07:28:06;95508.53;;;27.11;41.57
34742;BME280;20968;42.696;23.360;2022-07-21T07:30:34;95489.16;;;27.25;40.67
34742;BME280;20968;42.696;23.360;2022-07-21T07:32:59;95498.47;;;27.18;39.49
34742;BME280;20968;42.696;23.360;2022-07-21T07:35:25;95502.63;;;27.17;39.60
34742;BME280;20968;42.696;23.360;2022-07-21T07:37:50;95495.22;;;27.21;39.86
34742;BME280;20968;42.696;23.360;2022-07-21T07:40:19;95490.31;;;27.22;39.65
34742;BME280;20968;42.696;23.360;2022-07-21T07:42:45;95491.66;;;27.38;40.28
34742;BME280;20968;42.696;23.360;2022-07-21T07:45:11;95482.00;;;27.41;39.63
34742;BME280;20968;42.696;23.360;2022-07-21T07:47:37;95487.56;;;27.48;39.21
34742;BME280;20968;42.696;23.360;2022-07-21T07:50:05;95482.75;;;27.58;39.89
34742;BME280;20968;42.696;23.360;2022-07-21T07:52:31;95475.38;;;27.62;38.87
34742;BME280;20968;42.696;23.360;2022-07-21T07:54:56;95469.34;;;27.75;39.31
34742;BME280;20968;42.696;23.360;2022-07-21T07:57:22;95477.19;;;27.84;39.33
34742;BME280;20968;42.696;23.360;2022-07-21T07:59:47;95487.06;;;27.93;38.85
34742;BME280;20968;42.696;23.360;2022-07-21T08:02:13;95471.50;;;28.01;37.46
34742;BME280;20968;42.696;23.360;2022-07-21T08:04:38;95468.81;;;28.03;37.66
34742;BME280;20968;42.696;23.360;2022-07-21T08:07:06;95462.88;;;28.09;37.70
34742;BME280;20968;42.696;23.360;2022-07-21T08:09:32;95455.94;;;28.19;37.89
34742;BME280;20968;42.696;23.360;2022-07-21T08:11:57;95460.75;;;28.26;37.66
34742;BME280;20968;42.696;23.360;2022-07-21T08:14:22;95465.22;;;28.46;36.92
34742;BME280;20968;42.696;23.360;2022-07-21T08:16:49;95462.16;;;28.61;36.53
34742;BME280;20968;42.696;23.360;2022-07-21T08:19:15;95449.28;;;28.60;36.98
34742;BME280;20968;42.696;23.360;2022-07-21T08:21:40;95459.34;;;28.70;36.53
34742;BME280;20968;42.696;23.360;2022-07-21T08:24:06;95446.16;;;28.92;37.00
34742;BME280;20968;42.696;23.360;2022-07-21T08:26:32;95454.41;;;29.07;36.39
34742;BME280;20968;42.696;23.360;2022-07-21T08:28:57;95450.69;;;29.23;36.47
34742;BME280;20968;42.696;23.360;2022-07-21T08:31:24;95451.91;;;29.29;35.85
34742;BME280;20968;42.696;23.360;2022-07-21T08:33:50;95453.97;;;29.29;36.03
34742;BME280;20968;42.696;23.360;2022-07-21T08:36:16;95454.03;;;29.38;35.93
34742;BME280;20968;42.696;23.360;2022-07-21T08:38:41;95450.91;;;29.53;35.36
34742;BME280;20968;42.696;23.360;2022-07-21T08:41:07;95437.13;;;29.69;35.51
34742;BME280;20968;42.696;23.360;2022-07-21T08:43:34;95441.19;;;29.75;33.74
34742;BME280;20968;42.696;23.360;2022-07-21T08:46:00;95448.50;;;29.88;34.01
34742;BME280;20968;42.696;23.360;2022-07-21T08:48:26;95447.28;;;30.00;34.26
34742;BME280;20968;42.696;23.360;2022-07-21T08:50:53;95440.72;;;30.07;34.39
34742;BME280;20968;42.696;23.360;2022-07-21T08:53:19;95435.16;;;30.09;34.88
34742;BME280;20968;42.696;23.360;2022-07-21T08:55:44;95431.09;;;30.21;34.02
34742;BME280;20968;42.696;23.360;2022-07-21T08:58:11;95434.63;;;30.41;34.94
34742;BME280;20968;42.696;23.360;2022-07-21T09:00:39;95420.09;;;30.56;34.85
34742;BME280;20968;42.696;23.360;2022-07-21T09:03:23;95421.69;;;30.68;35.90
34742;BME280;20968;42.696;23.360;2022-07-21T09:08:31;95405.78;;;31.05;33.31
34742;BME280;20968;42.696;23.360;2022-07-21T09:11:22;95410.59;;;31.02;33.05
34742;BME280;20968;42.696;23.360;2022-07-21T09:14:12;95408.63;;;31.26;33.72
34742;BME280;20968;42.696;23.360;2022-07-21T09:16:37;95406.75;;;31.40;33.04
34742;BME280;20968;42.696;23.360;2022-07-21T09:19:04;95395.34;;;31.61;33.87
34742;BME280;20968;42.696;23.360;2022-07-21T09:21:34;95401.63;;;31.80;32.37
34742;BME280;20968;42.696;23.360;2022-07-21T09:24:17;95401.47;;;31.78;32.23
34742;BME280;20968;42.696;23.360;2022-07-21T09:26:57;95389.78;;;31.63;32.19
34742;BME280;20968;42.696;23.360;2022-07-21T09:29:23;95401.16;;;31.95;32.08
34742;BME280;20968;42.696;23.360;2022-07-21T09:31:48;95389.13;;;31.96;31.86
34742;BME280;20968;42.696;23.360;2022-07-21T09:34:14;95391.13;;;31.94;30.83
34742;BME280;20968;42.696;23.360;2022-07-21T09:36:54;95398.66;;;31.89;30.78
34742;BME280;20968;42.696;23.360;2022-07-21T09:39:44;95387.59;;;31.84;31.24
34742;BME280;20968;42.696;23.360;2022-07-21T09:42:13;95389.88;;;31.85;30.84
34742;BME280;20968;42.696;23.360;2022-07-21T09:44:42;95384.84;;;32.07;30.97
34742;BME280;20968;42.696;23.360;2022-07-21T09:47:13;95386.25;;;32.29;30.83
34742;BME280;20968;42.696;23.360;2022-07-21T09:49:40;95384.31;;;32.43;30.43
34742;BME280;20968;42.696;23.360;2022-07-21T09:52:26;95384.41;;;32.44;31.16
34742;BME280;20968;42.696;23.360;2022-07-21T09:54:53;95387.25;;;32.44;30.46
34742;BME280;20968;42.696;23.360;2022-07-21T09:57:19;95387.16;;;32.43;30.85
34742;BME280;20968;42.696;23.360;2022-07-21T09:59:46;95386.72;;;32.57;30.44
34742;BME280;20968;42.696;23.360;2022-07-21T10:02:24;95374.28;;;32.76;31.30
34742;BME280;20968;42.696;23.360;2022-07-21T10:07:26;95375.88;;;33.13;29.98
34742;BME280;20968;42.696;23.360;2022-07-21T10:09:53;95372.94;;;33.36;29.79
34742;BME280;20968;42.696;23.360;2022-07-21T10:12:18;95367.84;;;33.46;31.33
34742;BME280;20968;42.696;23.360;2022-07-21T10:14:44;95365.88;;;33.73;29.83
34742;BME280;20968;42.696;23.360;2022-07-21T10:17:12;95372.41;;;33.51;27.32
34742;BME280;20968;42.696;23.360;2022-07-21T10:19:52;95367.59;;;33.42;28.05
34742;BME280;20968;42.696;23.360;2022-07-21T10:22:25;95368.13;;;33.27;27.37
34742;BME280;20968;42.696;23.360;2022-07-21T10:24:55;95371.75;;;33.28;28.00
34742;BME280;20968;42.696;23.360;2022-07-21T10:27:20;95366.50;;;33.35;27.43
34742;BME280;20968;42.696;23.360;2022-07-21T10:30:01;95363.31;;;33.66;27.93
34742;BME280;20968;42.696;23.360;2022-07-21T10:32:36;95372.81;;;33.82;28.24
34742;BME280;20968;42.696;23.360;2022-07-21T10:35:26;95357.25;;;33.60;28.06
34742;BME280;20968;42.696;23.360;2022-07-21T10:37:52;95360.09;;;33.60;28.07
34742;BME280;20968;42.696;23.360;2022-07-21T10:45:41;95347.41;;;33.88;28.06
34742;BME280;20968;42.696;23.360;2022-07-21T10:51:02;95339.59;;;34.26;29.30
34742;BME280;20968;42.696;23.360;2022-07-21T10:53:29;95335.69;;;34.33;27.24
34742;BME280;20968;42.696;23.360;2022-07-21T10:55:55;95322.19;;;34.09;28.09
34742;BME280;20968;42.696;23.360;2022-07-21T10:58:29;95328.66;;;34.10;27.93
34742;BME280;20968;42.696;23.360;2022-07-21T11:03:41;95322.53;;;34.28;27.23
34742;BME280;20968;42.696;23.360;2022-07-21T11:06:26;95312.97;;;34.10;28.08
34742;BME280;20968;42.696;23.360;2022-07-21T11:11:26;95313.19;;;34.14;28.47
34742;BME280;20968;42.696;23.360;2022-07-21T11:24:31;95316.97;;;34.57;27.19
34742;BME280;20968;42.696;23.360;2022-07-21T11:27:08;95309.78;;;34.70;27.08
34742;BME280;20968;42.696;23.360;2022-07-21T11:29:36;95311.56;;;34.50;26.38
34742;BME280;20968;42.696;23.360;2022-07-21T11:32:03;95314.44;;;34.11;27.46
34742;BME280;20968;42.696;23.360;2022-07-21T11:34:42;95311.75;;;34.02;27.31
34742;BME280;20968;42.696;23.360;2022-07-21T11:37:10;95301.88;;;33.92;27.54
34742;BME280;20968;42.696;23.360;2022-07-21T11:39:36;95307.34;;;33.88;28.06
34742;BME280;20968;42.696;23.360;2022-07-21T11:42:07;95303.75;;;34.12;28.30
34742;BME280;20968;42.696;23.360;2022-07-21T11:44:33;95308.56;;;34.34;28.48
34742;BME280;20968;42.696;23.360;2022-07-21T11:47:00;95303.50;;;34.46;26.99
34742;BME280;20968;42.696;23.360;2022-07-21T11:49:26;95299.91;;;34.59;27.28
34742;BME280;20968;42.696;23.360;2022-07-21T11:54:53;95284.31;;;34.49;26.92
34742;BME280;20968;42.696;23.360;2022-07-21T11:57:20;95290.78;;;34.63;27.02
34742;BME280;20968;42.696;23.360;2022-07-21T11:59:47;95288.56;;;34.88;27.09
34742;BME280;20968;42.696;23.360;2022-07-21T12:04:48;95290.69;;;34.88;26.82
34742;BME280;20968;42.696;23.360;2022-07-21T12:09:43;95284.13;;;34.85;27.29
34742;BME280;20968;42.696;23.360;2022-07-21T12:12:10;95292.94;;;34.62;26.88
34742;BME280;20968;42.696;23.360;2022-07-21T12:14:46;95289.84;;;34.72;26.77
34742;BME280;20968;42.696;23.360;2022-07-21T12:17:13;95273.81;;;34.80;26.57
34742;BME280;20968;42.696;23.360;2022-07-21T12:19:39;95274.56;;;34.67;26.22
34742;BME280;20968;42.696;23.360;2022-07-21T12:22:04;95288.13;;;34.80;27.25
34742;BME280;20968;42.696;23.360;2022-07-21T12:24:52;95275.28;;;34.81;26.53
34742;BME280;20968;42.696;23.360;2022-07-21T12:27:18;95275.19;;;34.79;26.71
34742;BME280;20968;42.696;23.360;2022-07-21T12:29:44;95267.69;;;34.59;26.90
34742;BME280;20968;42.696;23.360;2022-07-21T12:32:10;95259.38;;;34.51;27.07
34742;BME280;20968;42.696;23.360;2022-07-21T12:34:50;95262.34;;;34.80;26.73
34742;BME280;20968;42.696;23.360;2022-07-21T12:37:16;95250.78;;;34.78;27.10
34742;BME280;20968;42.696;23.360;2022-07-21T12:39:41;95252.38;;;34.81;27.29
34742;BME280;20968;42.696;23.360;2022-07-21T12:44:53;95249.88;;;34.60;27.13
34742;BME280;20968;42.696;23.360;2022-07-21T12:47:20;95246.88;;;34.72;28.01
34742;BME280;20968;42.696;23.360;2022-07-21T12:49:54;95252.38;;;34.81;27.78
34742;BME280;20968;42.696;23.360;2022-07-21T12:52:20;95253.66;;;34.78;28.08
34742;BME280;20968;42.696;23.360;2022-07-21T12:54:46;95246.25;;;34.73;27.53
34742;BME280;20968;42.696;23.360;2022-07-21T12:57:11;95251.44;;;34.63;27.21
34742;BME280;20968;42.696;23.360;2022-07-21T12:59:36;95242.53;;;34.57;27.36
34742;BME280;20968;42.696;23.360;2022-07-21T13:02:02;95238.31;;;34.58;28.30
34742;BME280;20968;42.696;23.360;2022-07-21T13:04:27;95248.38;;;34.59;27.53
34742;BME280;20968;42.696;23.360;2022-07-21T13:06:53;95235.56;;;34.60;28.03
34742;BME280;20968;42.696;23.360;2022-07-21T13:09:18;95238.31;;;34.58;27.91
34742;BME280;20968;42.696;23.360;2022-07-21T13:11:45;95244.63;;;34.43;27.38
34742;BME280;20968;42.696;23.360;2022-07-21T13:14:11;95234.56;;;34.42;28.47
34742;BME280;20968;42.696;23.360;2022-07-21T13:16:36;95228.94;;;34.31;27.30
34742;BME280;20968;42.696;23.360;2022-07-21T13:19:02;95226.19;;;34.46;28.35
34742;BME280;20968;42.696;23.360;2022-07-21T13:21:27;95218.38;;;34.60;27.68
34742;BME280;20968;42.696;23.360;2022-07-21T13:23:53;95215.91;;;34.68;27.75
34742;BME280;20968;42.696;23.360;2022-07-21T13:26:18;95212.69;;;34.89;27.59
34742;BME280;20968;42.696;23.360;2022-07-21T13:28:43;95214.41;;;34.81;27.54
34742;BME280;20968;42.696;23.360;2022-07-21T13:31:10;95216.34;;;34.76;27.69
34742;BME280;20968;42.696;23.360;2022-07-21T13:33:36;95209.00;;;34.73;27.28